Taldom, Russia
Current Conditions -  °F | °C
As of 5:30 PM on Sunday 23 Nov 2014 (Local Time) from UUEE Reporting Station
Broken Clouds Broken Clouds  
Wind Chill: 21°   Ceiling: 1300
Heat Index: 28°   Visibility: 6mi
Dew Point: 25°   Wind: 7mph
Humidity: 86%   Direction: 20°NNE
Pressure: 30.5"   Gusts: NA
Location:  56.73°N, 37.53°E
Report Text: UUEE 231430Z 02003MPS 9999 BKN013 BKN200 M02/M04 Q1033 0700006257120057 NOSIG
Loading
Personal Weather Stations






























Interactive Weather Map New forecast layout! Learn more

10-Day Weather Forecast

Advertisements
Track Severe Weather on mobile